createdAt,value
2017-01-26T14:50:53.849Z,175
2017-01-26T14:51:14.210Z,175
2017-01-26T14:51:34.637Z,170
2017-01-26T14:51:54.422Z,170
2017-01-26T14:52:14.889Z,160
2017-01-26T14:52:35.725Z,160
2017-01-26T14:52:56.626Z,155
2017-01-26T14:53:16.181Z,150
2017-01-26T14:53:36.405Z,140
2017-01-26T14:53:59.038Z,140
2017-01-26T14:54:19.654Z,135
2017-01-26T14:54:39.378Z,130
2017-01-26T14:54:59.178Z,120
2017-01-26T14:55:19.609Z,110
2017-01-26T14:55:39.378Z,105
2017-01-26T14:55:59.775Z,105
2017-01-26T14:56:18.881Z,95
2017-01-26T14:56:39.315Z,85
2017-01-26T14:56:59.780Z,80
2017-01-26T14:57:19.609Z,85
2017-01-26T14:57:39.576Z,90
2017-01-26T14:58:00.029Z,105
2017-01-26T14:58:19.255Z,120
2017-01-26T14:58:39.044Z,125
2017-01-26T14:58:59.706Z,125
2017-01-26T14:59:19.548Z,135
2017-01-26T14:59:40.129Z,140
2017-01-26T15:00:00.539Z,140
2017-01-26T15:00:20.306Z,145
2017-01-26T15:00:40.711Z,145
2017-01-26T15:01:00.427Z,140
2017-01-26T15:01:20.846Z,135
2017-01-26T15:01:40.653Z,130
2017-01-26T15:02:00.439Z,135
2017-01-26T15:02:20.906Z,140
2017-01-26T15:02:40.710Z,145
2017-01-26T15:03:00.501Z,150
2017-01-26T15:03:20.932Z,150
2017-01-26T15:03:40.671Z,150
2017-01-26T15:04:00.417Z,150
2017-01-26T15:04:19.536Z,145
2017-01-26T15:04:39.948Z,140
2017-01-26T15:05:00.331Z,135
2017-01-26T15:05:20.757Z,120
2017-01-26T15:05:41.154Z,105
2017-01-26T15:06:00.903Z,110
2017-01-26T15:06:20.703Z,130
2017-01-26T15:06:40.490Z,130
2017-01-26T15:07:00.913Z,125
2017-01-26T15:07:20.273Z,120
2017-01-26T15:07:40.047Z,115
2017-01-26T15:08:00.521Z,115
2017-01-26T15:08:20.295Z,110
2017-01-26T15:08:40.712Z,110
2017-01-26T15:09:01.126Z,105
2017-01-26T15:09:20.075Z,105
2017-01-26T15:09:39.857Z,100
2017-01-26T15:10:00.271Z,100
2017-01-26T15:10:20.685Z,95
2017-01-26T15:10:41.095Z,95
2017-01-26T15:11:01.552Z,100
2017-01-26T15:11:21.323Z,100
2017-01-26T15:11:41.713Z,105
2017-01-26T15:12:01.572Z,105
2017-01-26T15:12:21.360Z,110
2017-01-26T15:12:41.099Z,115
2017-01-26T15:13:01.503Z,115
2017-01-26T15:13:21.230Z,120
2017-01-26T15:13:41.634Z,120
2017-01-26T15:14:00.766Z,125
2017-01-26T15:14:19.870Z,125
2017-01-26T15:14:39.637Z,130
2017-01-26T15:14:59.396Z,130
2017-01-26T15:15:19.166Z,130
2017-01-26T15:15:39.570Z,130
2017-01-26T15:15:58.719Z,135
2017-01-26T15:16:17.801Z,135
2017-01-26T15:16:38.207Z,135
2017-01-26T15:16:57.971Z,135
2017-01-26T15:17:17.712Z,135
2017-01-26T15:17:38.115Z,135
2017-01-26T15:17:58.533Z,135
2017-01-26T15:18:18.956Z,135
2017-01-26T15:18:39.370Z,135
2017-01-26T15:18:59.815Z,135
2017-01-26T15:19:20.202Z,135
2017-01-26T15:19:40.650Z,135
2017-01-26T15:20:01.112Z,135
2017-01-26T15:20:21.109Z,135
2017-01-26T15:20:41.523Z,140
2017-01-26T15:21:01.918Z,140
2017-01-26T15:21:22.333Z,140
2017-01-26T15:21:42.760Z,140
2017-01-26T15:22:03.169Z,140
2017-01-26T15:22:22.927Z,140
2017-01-26T15:22:43.339Z,140
2017-01-26T15:23:03.769Z,145
2017-01-26T15:23:24.203Z,145
2017-01-26T15:23:43.984Z,140
2017-01-26T15:24:03.778Z,140
2017-01-26T15:24:23.212Z,140
2017-01-26T15:24:43.697Z,140
2017-01-26T15:25:04.071Z,140
2017-01-26T15:25:23.805Z,140
2017-01-26T15:25:44.186Z,135
2017-01-26T15:26:03.964Z,135
2017-01-26T15:26:23.693Z,135
2017-01-26T15:26:44.083Z,135
2017-01-26T15:27:03.860Z,135
2017-01-26T15:27:24.264Z,135
2017-01-26T15:27:44.679Z,135
2017-01-26T15:28:05.119Z,135
2017-01-26T15:28:25.572Z,135
2017-01-26T15:28:45.342Z,135
2017-01-26T15:29:05.139Z,135
2017-01-26T15:29:25.512Z,135
2017-01-26T15:29:45.929Z,140
2017-01-26T15:30:06.510Z,140
2017-01-26T15:30:25.642Z,140
2017-01-26T15:30:46.058Z,140
2017-01-26T15:31:06.439Z,140
2017-01-26T15:31:26.235Z,140
2017-01-26T15:31:46.658Z,140
2017-01-26T15:32:07.125Z,140
2017-01-26T15:32:25.606Z,140
2017-01-26T15:32:45.410Z,145
2017-01-26T15:33:05.928Z,145
2017-01-26T15:33:26.399Z,145
2017-01-26T15:33:46.183Z,145
2017-01-26T15:34:05.953Z,145
2017-01-26T15:34:25.057Z,145
2017-01-26T15:34:44.826Z,145
2017-01-26T15:35:05.194Z,145
2017-01-26T15:35:24.278Z,145
2017-01-26T15:35:44.695Z,145
2017-01-26T15:36:04.454Z,150
2017-01-26T15:36:24.215Z,150
2017-01-26T15:36:44.615Z,150
2017-01-26T15:37:05.027Z,150
2017-01-26T15:37:25.399Z,150
2017-01-26T15:37:45.147Z,150
2017-01-26T15:38:04.950Z,155
2017-01-26T15:38:24.211Z,155
2017-01-26T15:38:44.637Z,155
2017-01-26T15:39:05.127Z,155
2017-01-26T15:39:27.459Z,160
2017-01-26T15:39:46.721Z,160
2017-01-26T15:40:07.805Z,160
2017-01-26T15:40:28.176Z,160
2017-01-26T15:40:47.954Z,160
2017-01-26T15:41:08.382Z,160
2017-01-26T15:41:28.156Z,165
2017-01-26T15:41:48.659Z,165
2017-01-26T15:42:09.075Z,165
2017-01-26T15:42:28.891Z,165
2017-01-26T15:42:49.280Z,160
2017-01-26T15:43:09.841Z,160
2017-01-26T15:43:29.588Z,155
2017-01-26T15:43:49.709Z,155
2017-01-26T15:44:10.266Z,155
2017-01-26T15:44:30.862Z,160
2017-01-26T15:44:50.668Z,165
2017-01-26T15:45:11.092Z,170
2017-01-26T15:45:30.904Z,170
2017-01-26T15:45:51.271Z,180
2017-01-26T15:46:10.981Z,185
2017-01-26T15:46:31.369Z,185
2017-01-26T15:46:51.782Z,185
2017-01-26T15:47:12.208Z,190
2017-01-26T15:47:31.962Z,190
2017-01-26T15:47:52.361Z,190
2017-01-26T15:48:12.848Z,190
2017-01-26T15:48:32.626Z,190
2017-01-26T15:48:53.048Z,195
2017-01-26T15:49:13.463Z,195
2017-01-26T15:49:33.242Z,200
2017-01-26T15:49:53.705Z,200
2017-01-26T15:50:14.178Z,200
2017-01-26T15:50:34.615Z,200
2017-01-26T15:50:55.203Z,200
2017-01-26T15:51:14.454Z,205
2017-01-26T15:51:35.482Z,205
2017-01-26T15:51:55.910Z,200
2017-01-26T15:52:15.741Z,205
2017-01-26T15:52:36.150Z,205
2017-01-26T15:52:56.570Z,205
2017-01-26T15:53:16.342Z,205
2017-01-26T15:53:36.143Z,210
2017-01-26T15:53:55.990Z,210
2017-01-26T15:54:15.759Z,210
2017-01-26T15:54:36.247Z,210
2017-01-26T15:54:56.680Z,210
2017-01-26T15:55:15.910Z,215
2017-01-26T15:55:36.506Z,215
2017-01-26T15:55:55.789Z,215
2017-01-26T15:56:16.254Z,215
2017-01-26T15:56:36.680Z,215
2017-01-26T15:56:56.423Z,220
2017-01-26T15:57:16.223Z,220
2017-01-26T15:57:36.019Z,220
2017-01-26T15:57:55.774Z,220
2017-01-26T15:58:16.199Z,225
2017-01-26T15:58:36.582Z,225
2017-01-26T15:58:56.958Z,225
2017-01-26T15:59:16.074Z,225
2017-01-26T15:59:35.824Z,225
2017-01-26T15:59:56.243Z,225
2017-01-26T16:00:15.393Z,230
2017-01-26T16:00:35.868Z,230
2017-01-26T16:00:55.660Z,230
2017-01-26T16:01:15.596Z,235
2017-01-26T16:01:36.034Z,235
2017-01-26T16:01:55.152Z,235
2017-01-26T16:02:14.293Z,240
2017-01-26T16:02:34.805Z,240
2017-01-26T16:02:55.266Z,245
2017-01-26T16:03:15.709Z,245
2017-01-26T16:03:36.112Z,245
2017-01-26T16:03:56.586Z,250
2017-01-26T16:04:15.761Z,255
2017-01-26T16:04:36.142Z,255
2017-01-26T16:04:55.917Z,255
2017-01-26T16:05:15.830Z,250
2017-01-26T16:05:36.508Z,245
2017-01-26T16:05:56.946Z,255
2017-01-26T16:06:17.320Z,270
2017-01-26T16:06:37.988Z,275
2017-01-26T16:06:58.534Z,280
2017-01-26T16:07:19.372Z,285
2017-01-26T16:07:39.806Z,290
2017-01-26T16:08:00.201Z,295
2017-01-26T16:08:20.896Z,300
2017-01-26T16:08:41.386Z,305
2017-01-26T16:09:01.783Z,305
2017-01-26T16:09:22.314Z,310
2017-01-26T16:09:42.786Z,310
2017-01-26T16:10:02.575Z,315
2017-01-26T16:10:36.815Z,325
2017-01-26T16:10:56.571Z,330
2017-01-26T16:11:16.397Z,340
2017-01-26T16:11:36.239Z,345
2017-01-26T16:11:56.713Z,355
2017-01-26T16:12:17.186Z,355
2017-01-26T16:12:37.641Z,360
2017-01-26T16:12:58.081Z,365
2017-01-26T16:13:17.881Z,370
2017-01-26T16:13:38.468Z,370
2017-01-26T16:13:58.257Z,375
2017-01-26T16:14:18.062Z,380
2017-01-26T16:14:38.578Z,380
2017-01-26T16:14:58.345Z,385
2017-01-26T16:15:17.436Z,385
2017-01-26T16:15:37.213Z,395
2017-01-26T16:15:57.638Z,390
2017-01-26T16:16:18.051Z,395
2017-01-26T16:16:37.774Z,400
2017-01-26T16:16:58.172Z,400
2017-01-26T16:17:18.578Z,405
2017-01-26T16:17:38.980Z,410
2017-01-26T16:17:59.382Z,410
2017-01-26T16:18:19.129Z,410
2017-01-26T16:18:38.943Z,410
2017-01-26T16:18:58.699Z,425
2017-01-26T16:19:19.104Z,425
2017-01-26T16:19:39.533Z,430
2017-01-26T16:19:59.350Z,430
2017-01-26T16:20:19.132Z,435
2017-01-26T16:20:39.553Z,440
2017-01-26T16:20:59.918Z,440
2017-01-26T16:21:20.522Z,445
2017-01-26T16:21:41.105Z,450
2017-01-26T16:22:01.662Z,450
2017-01-26T16:22:20.177Z,455
2017-01-26T16:22:40.603Z,455
2017-01-26T16:23:00.341Z,460
2017-01-26T16:23:20.740Z,460
2017-01-26T16:23:41.176Z,465
2017-01-26T16:24:01.672Z,470
2017-01-26T16:24:21.482Z,475
2017-01-26T16:24:41.321Z,475
2017-01-26T16:25:01.781Z,480
2017-01-26T16:25:21.531Z,485
2017-01-26T16:25:42.008Z,485
2017-01-26T16:26:02.444Z,490
2017-01-26T16:26:23.117Z,490
2017-01-26T16:26:42.906Z,500
2017-01-26T16:27:02.687Z,500
2017-01-26T16:27:23.112Z,505
2017-01-26T16:27:42.880Z,510
2017-01-26T16:28:02.665Z,515
2017-01-26T16:28:21.785Z,520
2017-01-26T16:28:41.572Z,525
2017-01-26T16:29:01.980Z,535
2017-01-26T16:29:22.379Z,540
2017-01-26T16:29:42.764Z,545
2017-01-26T16:30:03.192Z,550
2017-01-26T16:30:22.945Z,560
2017-01-26T16:30:43.352Z,570
2017-01-26T16:31:03.119Z,570
2017-01-26T16:31:22.942Z,580
2017-01-26T16:31:42.068Z,590
2017-01-26T16:32:01.884Z,600
2017-01-26T16:32:21.691Z,605
2017-01-26T16:32:41.480Z,620
2017-01-26T16:33:02.000Z,625
2017-01-26T16:33:21.794Z,635
2017-01-26T16:33:41.657Z,645
2017-01-26T16:34:01.461Z,655
2017-01-26T16:34:21.224Z,660
2017-01-26T16:34:41.042Z,665
2017-01-26T16:35:01.694Z,680
2017-01-26T16:35:22.193Z,685
2017-01-26T16:35:42.602Z,690
2017-01-26T16:36:02.996Z,705
2017-01-26T16:36:23.458Z,705
2017-01-26T16:36:44.086Z,710
2017-01-26T16:37:04.598Z,720
2017-01-26T16:37:25.160Z,725
2017-01-26T16:37:45.709Z,725
2017-01-26T16:38:06.140Z,725
2017-01-26T16:38:24.734Z,735
2017-01-26T16:38:45.210Z,740
2017-01-26T16:39:05.183Z,750
2017-01-26T16:39:25.659Z,755
2017-01-26T16:39:46.173Z,755
2017-01-26T16:40:06.738Z,755
2017-01-26T16:40:27.209Z,760
2017-01-26T16:40:47.028Z,765
2017-01-26T16:41:07.441Z,765
2017-01-26T16:41:27.288Z,765
2017-01-26T16:41:47.860Z,765
2017-01-26T16:42:08.333Z,770
2017-01-26T16:42:28.742Z,770
2017-01-26T16:42:48.516Z,775
2017-01-26T16:43:08.989Z,780
2017-01-26T16:43:42.630Z,780
2017-01-26T16:44:03.079Z,780
2017-01-26T16:44:23.559Z,780
2017-01-26T16:44:44.046Z,770
2017-01-26T16:45:03.859Z,770
2017-01-26T16:45:23.750Z,765
2017-01-26T16:45:43.553Z,765
2017-01-26T16:46:04.670Z,760
2017-01-26T16:46:24.570Z,760
2017-01-26T16:46:44.431Z,765
2017-01-26T16:47:03.656Z,765
2017-01-26T16:47:23.667Z,770
2017-01-26T16:47:44.275Z,785
2017-01-26T16:48:04.825Z,795
2017-01-26T16:48:24.853Z,790
2017-01-26T16:48:45.337Z,795
2017-01-26T16:49:06.333Z,780
2017-01-26T16:49:26.171Z,775
2017-01-26T16:49:46.698Z,775
2017-01-26T16:50:05.182Z,790
2017-01-26T16:50:25.730Z,795
2017-01-26T16:50:45.546Z,800
2017-01-26T16:51:06.013Z,800
2017-01-26T16:51:26.430Z,805
2017-01-26T16:51:46.396Z,805
2017-01-26T16:52:06.958Z,805
2017-01-26T16:52:26.135Z,810
2017-01-26T16:52:46.744Z,810
2017-01-26T16:53:07.218Z,795
2017-01-26T16:53:26.394Z,785
2017-01-26T16:53:46.822Z,785
2017-01-26T16:54:07.285Z,790
2017-01-26T16:54:26.494Z,795
2017-01-26T16:54:46.882Z,785
2017-01-26T16:55:06.910Z,775
2017-01-26T16:55:27.452Z,785
2017-01-26T16:55:47.230Z,815
2017-01-26T16:56:07.014Z,840
2017-01-26T16:56:27.468Z,865
2017-01-26T16:56:47.261Z,880
2017-01-26T16:57:07.025Z,900
2017-01-26T16:57:27.457Z,915
2017-01-26T16:57:46.574Z,930
2017-01-26T16:58:06.349Z,945
2017-01-26T16:58:26.287Z,950
2017-01-26T16:58:46.665Z,950
2017-01-26T16:59:06.437Z,940
2017-01-26T16:59:26.195Z,940
2017-01-26T16:59:46.605Z,950
2017-01-26T17:00:06.398Z,960
2017-01-26T17:00:26.165Z,960
2017-01-26T17:00:46.652Z,970
2017-01-26T17:01:07.691Z,975
2017-01-26T17:01:28.077Z,980
2017-01-26T17:01:47.966Z,975
2017-01-26T17:02:08.429Z,975
2017-01-26T17:02:28.308Z,985
2017-01-26T17:02:48.847Z,1005
2017-01-26T17:03:09.251Z,1015
2017-01-26T17:03:29.655Z,1020
2017-01-26T17:03:50.078Z,1040
2017-01-26T17:04:10.008Z,1065
2017-01-26T17:04:30.454Z,1070
2017-01-26T17:04:50.297Z,1065
2017-01-26T17:05:10.870Z,1055
2017-01-26T17:05:29.995Z,1035
2017-01-26T17:05:50.386Z,1035
2017-01-26T17:06:10.141Z,1050
2017-01-26T17:06:30.592Z,1075
2017-01-26T17:06:49.725Z,1095
2017-01-26T17:07:10.145Z,1095
2017-01-26T17:07:30.528Z,1105
2017-01-26T17:07:50.892Z,1130
2017-01-26T17:08:10.065Z,1150
2017-01-26T17:08:29.221Z,1165
2017-01-26T17:08:49.768Z,1175
2017-01-26T17:09:10.411Z,1175
2017-01-26T17:09:30.198Z,1170
2017-01-26T17:09:50.005Z,1165
2017-01-26T17:10:09.198Z,1145
2017-01-26T17:10:29.605Z,1130
2017-01-26T17:10:50.497Z,1090
2017-01-26T17:11:11.376Z,1040
2017-01-26T17:11:32.374Z,1020
2017-01-26T17:11:52.176Z,1055
2017-01-26T17:12:12.059Z,1125
2017-01-26T17:12:31.905Z,1175
2017-01-26T17:12:52.373Z,1195
2017-01-26T17:13:12.194Z,1205
2017-01-26T17:13:31.971Z,1185
2017-01-26T17:13:52.403Z,1170
2017-01-26T17:14:12.905Z,1155
2017-01-26T17:14:33.371Z,1135
2017-01-26T17:14:53.212Z,1125
2017-01-26T17:15:27.399Z,1105
2017-01-26T17:15:47.854Z,1110
2017-01-26T17:16:08.350Z,1100
2017-01-26T17:16:28.798Z,1085
2017-01-26T17:16:48.654Z,1070
2017-01-26T17:17:08.414Z,1050
2017-01-26T17:17:41.293Z,1050
2017-01-26T17:18:01.695Z,1070
2017-01-26T17:18:21.509Z,1085
2017-01-26T17:18:41.873Z,1065
2017-01-26T17:19:01.726Z,1035
2017-01-26T17:19:20.862Z,1000
2017-01-26T17:19:41.266Z,985
2017-01-26T17:20:01.704Z,1005
2017-01-26T17:20:20.873Z,1050
2017-01-26T17:20:41.392Z,1085
2017-01-26T17:21:01.141Z,1105
2017-01-26T17:21:20.894Z,1115
2017-01-26T17:21:41.279Z,1125
2017-01-26T17:22:15.537Z,1125
2017-01-26T17:22:35.291Z,1120
2017-01-26T17:22:55.778Z,1100
2017-01-26T17:23:14.892Z,1080
2017-01-26T17:23:34.078Z,1065
2017-01-26T17:23:53.813Z,1040
2017-01-26T17:24:14.293Z,1005
2017-01-26T17:24:33.417Z,970
2017-01-26T17:24:53.832Z,940
2017-01-26T17:25:14.244Z,915
2017-01-26T17:25:34.599Z,885
2017-01-26T17:25:55.083Z,870
2017-01-26T17:26:15.483Z,870
2017-01-26T17:26:36.151Z,855
2017-01-26T17:26:56.593Z,850
2017-01-26T17:27:16.552Z,855
2017-01-26T17:27:36.320Z,875
2017-01-26T17:27:56.807Z,905
2017-01-26T17:28:17.312Z,925
2017-01-26T17:28:37.752Z,935
2017-01-26T17:28:57.504Z,930
2017-01-26T17:29:17.983Z,920
2017-01-26T17:29:38.400Z,885
2017-01-26T17:29:58.157Z,855
2017-01-26T17:30:17.879Z,840
2017-01-26T17:30:38.335Z,835
2017-01-26T17:30:58.821Z,845
2017-01-26T17:31:19.219Z,860
2017-01-26T17:31:39.640Z,865
2017-01-26T17:32:00.145Z,870
2017-01-26T17:32:20.633Z,870
2017-01-26T17:32:40.418Z,865
2017-01-26T17:33:00.242Z,860
2017-01-26T17:33:20.025Z,855
2017-01-26T17:33:39.832Z,855
2017-01-26T17:34:00.313Z,850
2017-01-26T17:34:21.104Z,840
2017-01-26T17:34:41.892Z,840
2017-01-26T17:35:36.544Z,825
2017-01-26T17:35:57.478Z,820
2017-01-26T17:36:17.482Z,820
2017-01-26T17:36:37.956Z,815
2017-01-26T17:36:57.099Z,810
2017-01-26T17:37:17.609Z,805
2017-01-26T17:37:38.153Z,800
2017-01-26T17:37:59.318Z,795
2017-01-26T17:38:19.097Z,790
2017-01-26T17:38:39.375Z,790
2017-01-26T17:38:59.788Z,780
2017-01-26T17:39:19.653Z,780
2017-01-26T17:39:40.348Z,765
2017-01-26T17:40:00.864Z,765
2017-01-26T17:40:21.061Z,750
2017-01-26T17:40:41.826Z,745
2017-01-26T17:41:01.785Z,735
2017-01-26T17:41:22.267Z,730
2017-01-26T17:41:42.721Z,720
2017-01-26T17:42:02.602Z,710
2017-01-26T17:42:23.414Z,700
2017-01-26T17:42:43.253Z,700
2017-01-26T17:43:03.867Z,710
2017-01-26T17:43:24.301Z,720
2017-01-26T17:43:44.803Z,730
2017-01-26T17:44:05.560Z,740
2017-01-26T17:44:25.377Z,735
2017-01-26T17:44:45.272Z,735
2017-01-26T17:45:05.744Z,735
2017-01-26T17:45:26.221Z,730
2017-01-26T17:45:46.714Z,725
2017-01-26T17:46:06.645Z,725
2017-01-26T17:46:27.121Z,730
2017-01-26T17:46:46.900Z,735
2017-01-26T17:47:06.647Z,745
2017-01-26T17:47:26.603Z,740
2017-01-26T17:47:47.084Z,740
2017-01-26T17:48:06.929Z,745
2017-01-26T17:48:27.539Z,745
2017-01-26T17:48:46.774Z,745
2017-01-26T17:49:07.777Z,755
2017-01-26T17:49:28.324Z,755
2017-01-26T17:49:48.791Z,760
2017-01-26T17:50:08.594Z,755
2017-01-26T17:51:01.987Z,740
2017-01-26T17:51:21.272Z,770
2017-01-26T17:51:41.169Z,785
2017-01-26T17:52:02.057Z,800
2017-01-26T17:52:22.543Z,810
2017-01-26T17:52:42.382Z,805
2017-01-26T17:53:02.755Z,795
2017-01-26T17:53:23.271Z,780
2017-01-26T17:53:43.810Z,750
2017-01-26T17:54:03.647Z,760
2017-01-26T17:54:24.640Z,810
2017-01-26T17:54:45.112Z,835
2017-01-26T17:55:05.207Z,860
2017-01-26T17:55:25.723Z,880
2017-01-26T17:55:46.239Z,890
2017-01-26T17:56:06.758Z,895
2017-01-26T17:56:27.286Z,895
2017-01-26T17:56:47.341Z,900
2017-01-26T17:57:08.540Z,900
2017-01-26T17:57:27.749Z,905
2017-01-26T17:57:48.328Z,905
2017-01-26T17:58:08.214Z,910
2017-01-26T17:58:28.685Z,915
2017-01-26T17:58:49.173Z,920
2017-01-26T17:59:09.640Z,915
2017-01-26T17:59:30.166Z,915
2017-01-26T17:59:50.611Z,920
2017-01-26T18:00:11.140Z,920
2017-01-26T18:00:30.993Z,925
2017-01-26T18:00:51.665Z,925
2017-01-26T18:01:12.822Z,930
2017-01-26T18:01:32.708Z,930
2017-01-26T18:01:52.601Z,930
2017-01-26T18:02:12.420Z,940
2017-01-26T18:02:32.856Z,930
2017-01-26T18:02:53.274Z,925
2017-01-26T18:03:20.011Z,925
2017-01-26T18:03:40.544Z,920
2017-01-26T18:04:00.508Z,915
2017-01-26T18:04:20.995Z,905
2017-01-26T18:04:41.426Z,900
2017-01-26T18:05:01.891Z,890
2017-01-26T18:05:22.388Z,880
2017-01-26T18:05:42.228Z,875
2017-01-26T18:06:02.725Z,875
2017-01-26T18:06:23.218Z,860
2017-01-26T18:06:43.674Z,850
2017-01-26T18:07:03.493Z,840
2017-01-26T18:07:23.301Z,840
2017-01-26T18:07:43.771Z,835
2017-01-26T18:08:02.931Z,825
2017-01-26T18:08:23.397Z,820
2017-01-26T18:08:43.847Z,815
2017-01-26T18:09:03.718Z,815
2017-01-26T18:09:24.969Z,810
2017-01-26T18:09:46.956Z,815
2017-01-26T18:10:07.590Z,810
2017-01-26T18:10:27.686Z,810
2017-01-26T18:10:47.455Z,810
2017-01-26T18:11:07.220Z,815
2017-01-26T18:11:27.122Z,815
2017-01-26T18:11:47.589Z,820
2017-01-26T18:12:08.176Z,820
2017-01-26T18:12:27.415Z,825
2017-01-26T18:12:47.929Z,825
2017-01-26T18:13:07.778Z,825
2017-01-26T18:13:28.199Z,820
2017-01-26T18:13:48.679Z,820
2017-01-26T18:14:09.179Z,820
2017-01-26T18:14:29.905Z,815
2017-01-26T18:14:50.375Z,810
2017-01-26T18:15:10.160Z,810
2017-01-26T18:15:30.656Z,800
2017-01-26T18:15:51.215Z,795
2017-01-26T18:16:11.060Z,795
2017-01-26T18:16:30.864Z,790
2017-01-26T18:16:51.730Z,790
2017-01-26T18:17:11.580Z,785
2017-01-26T18:17:30.780Z,790
2017-01-26T18:17:51.769Z,785
2017-01-26T18:18:11.648Z,785
2017-01-26T18:18:31.554Z,790
2017-01-26T18:18:52.070Z,785
2017-01-26T18:19:12.600Z,790
2017-01-26T18:19:33.132Z,790
2017-01-26T18:19:53.596Z,795
2017-01-26T18:20:14.096Z,800
2017-01-26T18:20:34.534Z,800
2017-01-26T18:20:55.048Z,800
2017-01-26T18:21:14.901Z,805
2017-01-26T18:21:35.439Z,810
2017-01-26T18:21:55.924Z,815
2017-01-26T18:22:15.741Z,820
2017-01-26T18:22:36.680Z,820
2017-01-26T18:22:57.202Z,825
2017-01-26T18:23:17.723Z,835
2017-01-26T18:23:38.195Z,830
2017-01-26T18:23:57.365Z,840
2017-01-26T18:24:17.835Z,835
2017-01-26T18:24:38.410Z,840
2017-01-26T18:24:58.923Z,840
2017-01-26T18:25:18.094Z,840
2017-01-26T18:25:38.539Z,845
2017-01-26T18:25:59.050Z,845
2017-01-26T18:26:18.814Z,840
2017-01-26T18:26:39.279Z,845
2017-01-26T18:26:59.576Z,850
2017-01-26T18:27:20.140Z,850
2017-01-26T18:27:41.092Z,850
2017-01-26T18:28:01.690Z,850
2017-01-26T18:28:20.957Z,855
2017-01-26T18:28:41.553Z,855
2017-01-26T18:29:01.505Z,860
2017-01-26T18:29:21.409Z,860
2017-01-26T18:29:41.976Z,860
2017-01-26T18:30:02.517Z,860
2017-01-26T18:30:22.647Z,855
2017-01-26T18:30:43.620Z,855
2017-01-26T18:31:03.477Z,860
2017-01-26T18:31:24.131Z,865
2017-01-26T18:31:44.946Z,870
2017-01-26T18:32:05.437Z,870
2017-01-26T18:32:26.483Z,870
2017-01-26T18:32:47.015Z,875
2017-01-26T18:33:07.499Z,870
2017-01-26T18:33:28.026Z,870
2017-01-26T18:33:47.983Z,870
2017-01-26T18:34:08.986Z,870
2017-01-26T18:34:28.806Z,875
2017-01-26T18:34:49.513Z,870
2017-01-26T18:35:09.924Z,870
2017-01-26T18:35:30.974Z,870
2017-01-26T18:35:51.069Z,870
2017-01-26T18:36:11.518Z,865
2017-01-26T18:36:46.250Z,860
2017-01-26T18:37:06.038Z,850
2017-01-26T18:37:25.992Z,840
2017-01-26T18:37:46.419Z,820
2017-01-26T18:38:06.910Z,810
2017-01-26T18:38:27.372Z,815
2017-01-26T18:38:47.869Z,815
2017-01-26T18:39:08.343Z,835
2017-01-26T18:39:28.176Z,850
2017-01-26T18:39:48.062Z,850
2017-01-26T18:40:08.539Z,855
2017-01-26T18:40:28.467Z,855
2017-01-26T18:40:48.325Z,855
2017-01-26T18:41:08.867Z,850
2017-01-26T18:41:29.405Z,845
2017-01-26T18:41:49.229Z,845
2017-01-26T18:42:09.713Z,840
2017-01-26T18:42:29.515Z,835
2017-01-26T18:42:49.343Z,825
2017-01-26T18:43:10.535Z,815
2017-01-26T18:43:30.974Z,815
2017-01-26T18:43:51.504Z,810
2017-01-26T18:44:11.999Z,810
2017-01-26T18:44:33.013Z,795
2017-01-26T18:44:53.678Z,790
2017-01-26T18:45:14.217Z,780
2017-01-26T18:45:34.722Z,775
2017-01-26T18:45:54.551Z,770
2017-01-26T18:46:14.343Z,755
2017-01-26T18:46:34.907Z,735
2017-01-26T18:46:54.886Z,725
2017-01-26T18:47:14.040Z,725
2017-01-26T18:47:34.610Z,725
2017-01-26T18:47:55.172Z,720
2017-01-26T18:48:15.681Z,705
2017-01-26T18:48:36.232Z,675
2017-01-26T18:48:55.990Z,650
2017-01-26T18:49:16.460Z,655
2017-01-26T18:49:36.952Z,665
2017-01-26T18:49:57.418Z,675
2017-01-26T18:50:17.985Z,675
2017-01-26T18:50:38.562Z,660
2017-01-26T18:50:58.317Z,625
2017-01-26T18:51:17.503Z,595
2017-01-26T18:51:38.026Z,575
2017-01-26T18:51:57.800Z,575
2017-01-26T18:52:17.600Z,585
2017-01-26T18:52:38.034Z,590
2017-01-26T18:52:58.530Z,575
2017-01-26T18:53:19.019Z,540
2017-01-26T18:53:38.832Z,515
2017-01-26T18:53:59.402Z,495
2017-01-26T18:54:19.290Z,485
2017-01-26T18:54:39.233Z,470
2017-01-26T18:54:59.265Z,445
2017-01-26T18:55:19.707Z,425
2017-01-26T18:55:40.166Z,410
2017-01-26T18:56:00.631Z,410
2017-01-26T18:56:21.261Z,420
2017-01-26T18:56:41.042Z,415
2017-01-26T18:57:01.502Z,420
2017-01-26T18:57:21.738Z,435
2017-01-26T18:57:42.962Z,465
2017-01-26T18:58:02.935Z,505
2017-01-26T18:58:23.044Z,530
2017-01-26T18:58:44.456Z,535
2017-01-26T18:59:04.983Z,510
2017-01-26T18:59:25.016Z,470
2017-01-26T18:59:45.700Z,425
2017-01-26T19:00:05.598Z,390
2017-01-26T19:00:25.401Z,345
2017-01-26T19:00:46.738Z,320
2017-01-26T19:01:05.228Z,310
2017-01-26T19:01:25.678Z,310
2017-01-26T19:01:46.213Z,315
2017-01-26T19:02:06.126Z,325
2017-01-26T19:02:26.575Z,340
2017-01-26T19:02:47.025Z,365
2017-01-26T19:03:07.478Z,400
2017-01-26T19:03:27.351Z,455
2017-01-26T19:03:47.777Z,520
2017-01-26T19:04:08.286Z,560
2017-01-26T19:04:28.740Z,570
2017-01-26T19:04:49.647Z,570
2017-01-26T19:05:43.665Z,500
2017-01-26T19:06:04.062Z,480
2017-01-26T19:06:24.521Z,460
2017-01-26T19:06:44.997Z,450
2017-01-26T19:07:05.411Z,450
2017-01-26T19:07:25.300Z,465
2017-01-26T19:07:45.840Z,480
2017-01-26T19:08:06.367Z,500
2017-01-26T19:08:26.207Z,505
2017-01-26T19:08:46.599Z,505
2017-01-26T19:09:05.823Z,500
2017-01-26T19:09:26.380Z,490
2017-01-26T19:09:46.156Z,475
2017-01-26T19:10:06.954Z,465
2017-01-26T19:10:27.403Z,455
2017-01-26T19:10:47.871Z,460
2017-01-26T19:11:09.136Z,470
2017-01-26T19:11:30.759Z,490
2017-01-26T19:11:51.288Z,505
2017-01-26T19:12:12.420Z,520
2017-01-26T19:12:32.987Z,530
2017-01-26T19:12:53.517Z,535
2017-01-26T19:13:14.053Z,535
2017-01-26T19:13:34.585Z,525
2017-01-26T19:13:55.154Z,515
2017-01-26T19:14:14.978Z,505
2017-01-26T19:14:35.450Z,495
2017-01-26T19:14:55.185Z,490
2017-01-26T19:15:14.439Z,485
2017-01-26T19:15:33.681Z,485
2017-01-26T19:15:53.611Z,485
2017-01-26T19:16:13.413Z,480
2017-01-26T19:16:34.533Z,475
2017-01-26T19:16:55.134Z,465
2017-01-26T19:17:15.021Z,460
2017-01-26T19:17:34.839Z,460
2017-01-26T19:17:55.237Z,465
2017-01-26T19:18:15.740Z,475
2017-01-26T19:18:36.178Z,480
2017-01-26T19:18:56.031Z,485
2017-01-26T19:19:16.421Z,480
2017-01-26T19:19:36.162Z,470
2017-01-26T19:19:55.909Z,460
2017-01-26T19:20:14.442Z,450
2017-01-26T19:20:34.904Z,440
2017-01-26T19:20:55.290Z,440
2017-01-26T19:21:15.120Z,445
2017-01-26T19:21:35.788Z,450
2017-01-26T19:21:56.282Z,455
2017-01-26T19:22:16.038Z,465
2017-01-26T19:22:36.307Z,475
2017-01-26T19:22:56.729Z,485
2017-01-26T19:23:16.510Z,490
2017-01-26T19:23:36.911Z,485
2017-01-26T19:23:57.307Z,480
2017-01-26T19:24:17.699Z,470
2017-01-26T19:24:38.115Z,465
2017-01-26T19:24:57.945Z,470
2017-01-26T19:25:18.427Z,470
2017-01-26T19:25:38.880Z,475
2017-01-26T19:25:58.010Z,495
2017-01-26T19:26:17.875Z,510
2017-01-26T19:26:39.431Z,530
2017-01-26T19:26:59.860Z,525
2017-01-26T19:27:19.679Z,520
2017-01-26T19:27:40.090Z,515
2017-01-26T19:27:59.984Z,520
2017-01-26T19:28:19.299Z,515
2017-01-26T19:28:39.029Z,520
2017-01-26T19:28:59.471Z,535
2017-01-26T19:29:19.853Z,545
2017-01-26T19:29:40.358Z,550
2017-01-26T19:30:00.103Z,555
2017-01-26T19:30:19.884Z,555
2017-01-26T19:30:39.694Z,550
2017-01-26T19:30:59.469Z,545
2017-01-26T19:31:19.904Z,540